Time;durP1;ratioP1;P1;durP2;ratioP2;P2;SDS_P1;SDS_P2;PMS_P1;PMS_P2;Temp;Humidity;BMP_temperature;BMP_pressure;BME280_temperature;BME280_humidity;BME280_pressure;Samples;Min_cycle;Max_cycle;Signal;HPM_P1;HPM_P2
2021/03/21 00:00:43;;;;;;;19.20;9.70;;;;;;;-2.47;78.04;100253.43;1659904;85;21214;-75
2021/03/21 00:03:12;;;;;;;18.85;10.03;;;;;;;-2.47;78.26;100253.43;1645608;87;21702;-75
2021/03/21 00:05:41;;;;;;;26.68;10.30;;;;;;;-2.49;78.46;100252.10;1636575;87;21214;-77
2021/03/21 00:08:23;;;;;;;22.07;11.20;;;;;;;-2.50;78.21;100252.95;1636492;85;21196;-74
2021/03/21 00:10:56;;;;;;;21.85;9.83;;;;;;;-2.51;77.89;100246.05;1671548;85;21227;-69
2021/03/21 00:13:24;;;;;;;16.07;8.87;;;;;;;-2.52;77.93;100243.03;1640938;87;21703;-72
2021/03/21 00:15:57;;;;;;;15.57;8.27;;;;;;;-2.55;78.13;100239.12;1650753;85;21777;-73
2021/03/21 00:18:29;;;;;;;18.43;10.10;;;;;;;-2.56;78.40;100243.38;1656926;85;21309;-71
2021/03/21 00:20:56;;;;;;;14.80;9.00;;;;;;;-2.58;78.30;100239.94;1679778;85;21710;-72
2021/03/21 00:23:24;;;;;;;18.80;8.70;;;;;;;-2.60;78.45;100239.44;1640995;86;22282;-72
2021/03/21 00:25:52;;;;;;;18.92;8.73;;;;;;;-2.62;78.57;100235.98;1656411;85;21210;-71
2021/03/21 00:28:23;;;;;;;20.20;10.07;;;;;;;-2.65;78.54;100234.63;1682555;85;21855;-72
2021/03/21 00:30:51;;;;;;;20.25;11.30;;;;;;;-2.68;78.49;100235.87;1641171;87;21152;-72
2021/03/21 00:33:22;;;;;;;20.08;10.90;;;;;;;-2.72;78.49;100235.36;1651448;85;21187;-72
2021/03/21 00:35:53;;;;;;;;;;;;;;;-2.77;78.56;100227.11;1643593;86;21204;-72
2021/03/21 00:38:32;;;;;;;22.33;10.97;;;;;;;-2.78;79.03;100231.83;1641114;86;20287;-73
2021/03/21 00:41:00;;;;;;;20.40;10.73;;;;;;;-2.80;79.29;100233.51;1669669;85;21447;-72
2021/03/21 00:43:30;;;;;;;23.65;11.48;;;;;;;-2.83;79.35;100225.73;1639768;86;21252;-72
2021/03/21 00:45:58;;;;;;;19.73;10.37;;;;;;;-2.86;79.06;100217.92;1648702;85;21759;-72
2021/03/21 00:48:30;;;;;;;22.83;11.13;;;;;;;-2.88;78.84;100222.17;1664766;85;21228;-72
2021/03/21 00:50:58;;;;;;;16.27;8.80;;;;;;;-2.89;79.21;100224.31;1653628;85;21694;-72
2021/03/21 00:53:26;;;;;;;16.87;8.47;;;;;;;-2.93;79.10;100226.38;1679679;85;21824;-77
2021/03/21 00:55:55;;;;;;;14.60;7.95;;;;;;;-2.94;79.18;100225.94;1683010;84;21210;-72
2021/03/21 00:58:22;;;;;;;17.67;9.83;;;;;;;-2.96;79.28;100223.75;1640935;87;21196;-72
2021/03/21 01:00:53;;;;;;;16.57;9.10;;;;;;;-3.00;79.37;100218.09;1658562;85;21291;-71
2021/03/21 01:03:21;;;;;;;17.37;9.68;;;;;;;-3.02;79.49;100218.47;1681428;85;21254;-70
2021/03/21 01:05:58;;;;;;;21.60;10.27;;;;;;;-3.06;79.54;100210.23;1650164;85;21441;-71
2021/03/21 01:08:34;;;;;;;23.10;11.47;;;;;;;-3.08;79.66;100217.95;1658800;85;21191;-71
2021/03/21 01:11:14;;;;;;;20.53;9.97;;;;;;;-3.08;79.95;100213.19;1664574;85;21148;-71
2021/03/21 01:13:42;;;;;;;21.93;10.67;;;;;;;-3.11;80.07;100211.85;1679649;85;21264;-70
2021/03/21 01:16:21;;;;;;;24.03;11.83;;;;;;;-3.14;80.08;100197.20;1632272;87;21208;-72
2021/03/21 01:18:50;;;;;;;22.30;11.13;;;;;;;-3.14;80.47;100205.36;1665913;85;21392;-72
2021/03/21 01:21:18;;;;;;;18.30;10.20;;;;;;;-3.17;80.46;100209.61;1685499;85;21206;-72
2021/03/21 01:23:46;;;;;;;14.33;8.00;;;;;;;-3.17;80.28;100207.03;1661175;85;21229;-71
2021/03/21 01:26:16;;;;;;;19.00;9.33;;;;;;;-3.18;80.29;100203.13;1643098;84;21304;-63
2021/03/21 01:28:45;;;;;;;;;;;;;;;-3.21;80.23;100207.81;1636998;87;21253;-64
2021/03/21 01:31:17;;;;;;;18.10;10.37;;;;;;;-3.22;80.33;100208.66;1612848;87;21238;-62
2021/03/21 01:33:45;;;;;;;23.77;10.43;;;;;;;-3.25;80.47;100208.58;1639217;87;21218;-64
2021/03/21 01:36:18;;;;;;;23.00;11.40;;;;;;;-3.26;80.87;100202.13;1640793;87;21216;-65
2021/03/21 01:38:46;;;;;;;25.33;11.53;;;;;;;-3.26;80.98;100199.55;1676464;85;21225;-65
2021/03/21 01:41:18;;;;;;;23.00;11.90;;;;;;;-3.29;80.91;100201.66;1646169;82;21409;-69
2021/03/21 01:43:46;;;;;;;28.27;12.07;;;;;;;-3.30;80.89;100199.89;1677923;84;21356;-68
2021/03/21 01:46:36;;;;;;;20.17;10.13;;;;;;;-3.30;81.13;100199.89;1692175;84;21224;-67
2021/03/21 01:49:27;;;;;;;18.12;9.80;;;;;;;-3.32;81.04;100197.70;1695571;82;21191;-68
2021/03/21 01:51:56;;;;;;;18.80;9.30;;;;;;;-3.32;81.18;100197.70;1678828;84;21172;-69
2021/03/21 01:54:25;;;;;;;22.53;11.07;;;;;;;-3.33;81.47;100193.84;1691704;84;21190;-68
2021/03/21 01:56:54;;;;;;;20.68;10.88;;;;;;;-3.34;81.49;100187.79;1709839;81;22212;-68
2021/03/21 01:59:27;;;;;;;20.87;10.67;;;;;;;-3.31;81.96;100195.59;1759263;80;21194;-68
2021/03/21 02:01:58;;;;;;;20.67;10.30;;;;;;;-3.30;82.10;100190.02;1758378;80;21297;-69
2021/03/21 02:04:26;;;;;;;22.20;11.47;;;;;;;-3.30;82.24;100190.88;1770139;80;21631;-67
2021/03/21 02:07:12;;;;;;;21.27;10.70;;;;;;;-3.30;82.02;100190.88;1779814;80;21184;-68
2021/03/21 02:09:52;;;;;;;19.20;10.67;;;;;;;-3.30;82.16;100187.02;1766761;80;22131;-68
2021/03/21 02:12:40;;;;;;;19.67;10.73;;;;;;;-3.30;82.11;100184.45;1698851;80;21175;-67
2021/03/21 02:15:47;;;;;;;19.33;10.23;;;;;;;-3.29;82.33;100181.05;1655805;86;21247;-68
2021/03/21 02:18:33;;;;;;;21.37;10.57;;;;;;;-3.30;82.13;100168.13;1643417;86;21284;-67
2021/03/21 02:21:21;;;;;;;23.63;11.73;;;;;;;-3.30;82.34;100166.42;1642017;86;21245;-66
2021/03/21 02:24:15;;;;;;;19.63;9.63;;;;;;;-3.31;82.39;100169.84;1650596;86;21232;-67
2021/03/21 02:27:20;;;;;;;24.37;11.10;;;;;;;-3.32;82.24;100168.09;1654255;82;21652;-64
2021/03/21 02:30:11;;;;;;;19.30;10.67;;;;;;;-3.31;82.15;100174.10;1714363;82;21195;-64
2021/03/21 02:32:48;;;;;;;;;;;;;;;-3.35;82.24;100165.47;1733224;81;21162;-64
2021/03/21 02:35:34;;;;;;;19.37;10.57;;;;;;;-3.37;82.21;100170.58;1744239;81;20293;-63
2021/03/21 02:38:18;;;;;;;20.07;9.97;;;;;;;-3.39;82.29;100167.09;1754734;81;21221;-63
2021/03/21 02:41:00;;;;;;;19.77;9.60;;;;;;;-3.40;81.90;100168.38;1757891;81;21272;-64
2021/03/21 02:43:34;;;;;;;20.03;11.47;;;;;;;-3.41;81.98;100171.34;1702124;78;21227;-73
2021/03/21 02:46:21;;;;;;;21.07;10.77;;;;;;;-3.41;81.86;100170.05;1707773;83;21168;-72
2021/03/21 02:48:55;;;;;;;21.67;12.33;;;;;;;-3.41;81.97;100173.06;1702366;82;21206;-73
2021/03/21 02:51:30;;;;;;;22.90;11.17;;;;;;;-3.41;81.96;100167.91;1685117;84;21374;-73
2021/03/21 02:54:01;;;;;;;22.50;11.30;;;;;;;-3.40;82.14;100165.80;1696666;84;21225;-73
2021/03/21 02:56:30;;;;;;;22.33;12.83;;;;;;;-3.39;82.00;100163.66;1697039;84;21232;-72
2021/03/21 02:59:13;;;;;;;25.20;12.23;;;;;;;-3.38;82.00;100162.84;1698926;84;21197;-71
2021/03/21 03:01:57;;;;;;;23.00;11.33;;;;;;;-3.38;82.04;100155.11;1702436;82;21153;-73
2021/03/21 03:04:31;;;;;;;19.83;10.67;;;;;;;-3.39;81.73;100154.22;1695916;84;21190;-73
2021/03/21 03:07:19;;;;;;;23.40;12.03;;;;;;;-3.40;81.71;100147.78;1700090;84;21632;-71
2021/03/21 03:09:50;;;;;;;24.87;12.93;;;;;;;-3.41;81.59;100148.59;1687185;84;21174;-72
2021/03/21 03:12:29;;;;;;;27.20;12.90;;;;;;;-3.43;81.74;100142.55;1691656;84;21253;-71
2021/03/21 03:14:57;;;;;;;24.67;12.53;;;;;;;-3.45;81.77;100139.06;1685010;82;21193;-70
2021/03/21 03:17:30;;;;;;;25.57;11.93;;;;;;;-3.45;81.90;100143.82;1681467;83;21379;-71
2021/03/21 03:20:40;;;;;;;19.77;11.27;;;;;;;-3.48;81.67;100138.59;1685745;84;21223;-71
2021/03/21 03:23:13;;;;;;;22.37;11.53;;;;;;;-3.48;81.62;100150.60;1683221;84;21224;-72
2021/03/21 03:25:59;;;;;;;19.20;9.60;;;;;;;-3.52;81.60;100145.83;1682070;84;21703;-73
2021/03/21 03:28:47;;;;;;;23.27;11.40;;;;;;;-3.51;81.85;100149.27;1793542;78;21169;-63
2021/03/21 03:31:35;;;;;;;19.90;9.97;;;;;;;-3.53;81.94;100147.08;1802133;78;22345;-63
2021/03/21 03:34:03;;;;;;;21.10;9.93;;;;;;;-3.59;81.75;100143.55;1785969;78;21153;-63
2021/03/21 03:36:32;;;;;;;17.13;10.17;;;;;;;-3.61;81.85;100141.36;1770369;79;21202;-63
2021/03/21 03:39:00;;;;;;;23.53;11.13;;;;;;;-3.65;82.14;100138.27;1727976;82;21220;-63
2021/03/21 03:41:43;;;;;;;18.07;10.30;;;;;;;-3.67;82.22;100142.51;1795065;77;21263;-63
2021/03/21 03:44:38;;;;;;;21.03;11.00;;;;;;;-3.69;82.39;100138.17;1663523;85;21253;-71
2021/03/21 03:47:19;;;;;;;22.53;12.00;;;;;;;-3.75;82.42;100136.35;1668695;85;21221;-70
2021/03/21 03:50:17;;;;;;;22.17;11.83;;;;;;;-3.80;82.56;100136.65;1649127;85;21716;-72
2021/03/21 03:52:53;;;;;;;21.63;11.60;;;;;;;-3.84;82.59;100133.59;1668212;85;21208;-73
2021/03/21 03:55:34;;;;;;;20.97;10.13;;;;;;;-3.90;82.64;100133.02;1676122;85;21657;-72
2021/03/21 03:58:28;;;;;;;17.73;9.80;;;;;;;-3.93;82.73;100128.24;1675646;84;21388;-72
2021/03/21 04:01:04;;;;;;;23.13;11.87;;;;;;;-3.94;83.05;100129.06;1672297;85;21189;-72
2021/03/21 04:03:57;;;;;;;18.10;10.00;;;;;;;-3.94;83.48;100126.48;1650553;86;21245;-71
2021/03/21 04:06:31;;;;;;;20.30;10.70;;;;;;;-3.93;83.64;100132.10;1676177;85;21192;-72
2021/03/21 04:09:10;;;;;;;18.87;10.20;;;;;;;-3.92;83.42;100128.25;1671225;84;21222;-73
2021/03/21 04:12:04;;;;;;;23.90;11.37;;;;;;;-3.90;83.38;100130.88;1670465;83;21926;31
2021/03/21 04:15:06;;;;;;;18.47;10.13;;;;;;;-3.90;83.38;100128.30;1653623;85;21224;-62
2021/03/21 04:18:07;;;;;;;19.57;10.03;;;;;;;-3.87;83.29;100128.35;1664193;84;21394;-63
2021/03/21 04:20:39;;;;;;;21.40;10.93;;;;;;;-3.82;83.49;100130.59;1655448;85;21189;-63
2021/03/21 04:23:18;;;;;;;23.27;9.90;;;;;;;-3.78;83.32;100128.55;1645909;86;21159;-62
2021/03/21 04:25:55;;;;;;;20.33;10.57;;;;;;;-3.76;82.91;100132.02;1649346;86;21920;-63
2021/03/21 04:28:32;;;;;;;17.63;8.93;;;;;;;-3.71;82.81;100130.41;1646182;83;21201;-72
2021/03/21 04:31:01;;;;;;;20.87;10.17;;;;;;;-3.65;82.52;100128.39;1677122;82;21236;-72
2021/03/21 04:33:37;;;;;;;22.40;11.00;;;;;;;-3.30;83.03;100129.08;1669477;85;21187;-72
2021/03/21 04:36:13;;;;;;;19.63;11.03;;;;;;;-2.76;81.69;100114.16;1662649;85;21229;-73
2021/03/21 04:38:48;;;;;;;18.42;9.95;;;;;;;-2.17;80.48;100112.47;1667529;84;22178;-74
2021/03/21 04:41:22;;;;;;;18.65;10.30;;;;;;;-1.61;78.66;100103.72;1674442;85;21601;-71
2021/03/21 04:43:58;;;;;;;20.23;10.45;;;;;;;-1.08;76.43;100099.15;1705939;82;21163;-73
2021/03/21 04:46:30;;;;;;;19.02;10.05;;;;;;;-0.59;73.65;100097.84;1691300;84;21246;-73
2021/03/21 04:48:58;;;;;;;24.02;12.40;;;;;;;-0.16;71.08;100091.64;1666516;84;21166;-73
2021/03/21 04:51:35;;;;;;;24.25;11.53;;;;;;;0.26;69.07;100090.16;1693793;84;21839;-73
2021/03/21 04:54:20;;;;;;;22.22;11.60;;;;;;;0.62;68.51;100083.80;1678675;84;22149;-72
2021/03/21 04:56:59;;;;;;;20.72;11.55;;;;;;;1.08;68.48;100083.43;1684606;83;21234;-72
2021/03/21 04:59:31;;;;;;;19.60;10.98;;;;;;;1.47;66.55;100078.67;1675791;84;21177;-72
2021/03/21 05:02:15;;;;;;;22.37;10.93;;;;;;;1.59;64.87;100083.01;1699856;84;21138;-73
2021/03/21 05:04:51;;;;;;;20.17;10.48;;;;;;;1.98;63.26;100087.66;1640188;87;21812;-74
2021/03/21 05:07:30;;;;;;;18.98;10.95;;;;;;;2.42;61.09;100081.02;1664560;84;21643;-73
2021/03/21 05:10:25;;;;;;;15.10;9.85;;;;;;;2.75;59.24;100080.86;1678423;84;22276;-73
2021/03/21 05:13:04;;;;;;;14.90;9.13;;;;;;;3.11;58.72;100081.91;1681875;82;21249;-73
2021/03/21 05:16:05;;;;;;;14.15;9.30;;;;;;;3.48;57.01;100081.61;1640265;86;21298;-73
2021/03/21 05:21:54;;;;;;;16.20;9.83;;;;;;;4.18;52.97;100085.66;1804201;79;27668;-73
2021/03/21 05:24:40;;;;;;;14.40;9.55;;;;;;;4.33;52.81;100080.28;1774513;80;21189;-73
2021/03/21 05:27:17;;;;;;;11.78;8.23;;;;;;;4.78;52.69;100084.90;1708867;83;21229;-73
2021/03/21 05:30:12;;;;;;;15.98;8.40;;;;;;;5.04;50.25;100076.71;1722734;83;21608;-75
2021/03/21 05:32:41;;;;;;;16.70;9.78;;;;;;;5.12;48.27;100081.35;1716963;83;21151;-75
2021/03/21 05:35:14;;;;;;;18.85;8.68;;;;;;;5.36;48.34;100081.42;1709058;82;22265;-73
2021/03/21 05:37:57;;;;;;;14.20;8.33;;;;;;;5.59;45.87;100074.50;1723216;82;21215;-72
2021/03/21 05:41:19;;;;;;;14.07;9.00;;;;;;;5.46;45.09;100078.20;1711458;81;21745;-74
2021/03/21 05:44:42;;;;;;;15.75;9.60;;;;;;;5.44;46.24;100078.67;1657813;80;21205;-66
2021/03/21 05:47:55;;;;;;;15.38;9.23;;;;;;;5.58;45.65;100084.52;1634802;86;21232;-68
2021/03/21 05:50:50;;;;;;;14.33;8.50;;;;;;;5.95;46.02;100078.66;1674056;85;21675;-66
2021/03/21 05:53:46;;;;;;;14.05;8.55;;;;;;;6.39;45.95;100072.98;1655239;85;21211;-67
2021/03/21 05:56:31;;;;;;;13.30;9.53;;;;;;;6.62;41.56;100070.33;1582662;88;21576;-67
2021/03/21 05:59:31;;;;;;;14.75;8.85;;;;;;;6.35;41.80;100071.34;1700228;82;21745;-77
2021/03/21 06:02:23;;;;;;;12.95;8.25;;;;;;;5.93;43.96;100080.39;1726954;82;21163;-72
2021/03/21 06:05:30;;;;;;;18.35;11.10;;;;;;;5.28;43.95;100064.15;1724232;82;21209;-70
2021/03/21 06:08:43;;;;;;;16.93;9.90;;;;;;;4.97;44.42;100071.13;1688152;83;21183;-68
2021/03/21 06:11:39;;;;;;;18.27;9.85;;;;;;;4.48;45.56;100079.20;1700782;82;22217;-69
2021/03/21 06:14:39;;;;;;;19.25;11.38;;;;;;;3.79;47.53;100078.70;1657395;79;21205;-69
2021/03/21 06:17:58;;;;;;;18.27;10.72;;;;;;;3.01;47.80;100079.38;1615027;85;27428;-68
2021/03/21 06:20:44;;;;;;;18.55;10.93;;;;;;;2.53;49.75;100069.25;1577367;90;21325;-69
2021/03/21 06:23:48;;;;;;;17.48;11.43;;;;;;;2.27;51.00;100066.79;1554683;88;21682;-69
2021/03/21 06:26:45;;;;;;;21.40;12.43;;;;;;;2.08;53.44;100069.90;1579111;90;21265;-68
2021/03/21 06:29:44;;;;;;;21.15;11.60;;;;;;;1.85;52.63;100069.53;1631014;85;21167;-71
2021/03/21 06:33:13;;;;;;;23.45;13.13;;;;;;;1.76;54.14;100070.84;1619753;88;21327;-72
2021/03/21 06:36:23;;;;;;;22.17;13.43;;;;;;;1.61;54.84;100064.37;1614697;88;21247;-71
2021/03/21 06:39:34;;;;;;;22.30;12.35;;;;;;;1.24;54.63;100061.81;1583927;89;21356;-71
2021/03/21 06:42:34;;;;;;;24.67;14.87;;;;;;;1.22;57.01;100055.34;1589371;88;21238;-72
2021/03/21 06:45:36;;;;;;;29.72;15.00;;;;;;;1.45;56.34;100049.28;1677584;84;21219;-69
2021/03/21 06:48:38;;;;;;;27.52;14.20;;;;;;;1.83;54.38;100046.59;1673489;84;21203;-69
2021/03/21 06:51:23;;;;;;;21.42;11.95;;;;;;;1.91;55.68;100036.20;1675900;84;21207;-68
2021/03/21 06:54:30;;;;;;;24.40;15.13;;;;;;;2.14;53.97;100032.63;1664297;85;21685;-69
2021/03/21 06:57:12;;;;;;;28.20;16.15;;;;;;;2.54;53.44;100028.10;1656192;85;21674;-69
2021/03/21 07:00:15;;;;;;;24.10;13.88;;;;;;;2.62;51.73;100022.44;1656452;84;21216;-69
2021/03/21 07:03:05;;;;;;;27.75;15.95;;;;;;;2.51;54.44;100022.94;1652383;84;21226;-69
2021/03/21 07:06:07;;;;;;;28.52;16.00;;;;;;;2.23;53.15;100012.69;1613207;87;21711;-69
2021/03/21 07:09:19;;;;;;;28.05;16.02;;;;;;;1.87;52.50;100019.75;1641952;85;21226;-71
2021/03/21 07:12:10;;;;;;;29.23;14.98;;;;;;;1.71;53.32;100017.22;1643414;85;21693;-70
2021/03/21 07:28:21;;;;;;;28.07;16.65;;;;;;;3.57;46.71;99981.27;1804577;77;21099;-69
2021/03/21 07:31:16;;;;;;;26.95;16.17;;;;;;;4.10;48.36;99978.05;1747383;79;21658;-68
2021/03/21 07:34:10;;;;;;;26.37;15.72;;;;;;;4.50;48.13;99980.95;1658804;82;21717;-68
2021/03/21 07:36:52;;;;;;;28.50;16.60;;;;;;;4.95;42.85;99964.63;1738880;79;21419;-67
2021/03/21 07:39:39;;;;;;;26.00;15.58;;;;;;;5.16;43.08;99960.79;1737993;80;21205;-68
2021/03/21 07:42:54;;;;;;;25.67;14.77;;;;;;;5.00;45.84;99957.13;1830900;78;28662;-69
2021/03/21 07:46:13;;;;;;;29.40;16.40;;;;;;;5.28;45.02;99953.17;1681428;83;21174;-68
2021/03/21 07:49:21;;;;;;;25.02;14.50;;;;;;;5.20;41.61;99941.13;1739333;80;21383;-66
2021/03/21 07:52:22;;;;;;;26.23;13.90;;;;;;;4.81;42.27;99950.05;1726319;80;21170;-67
2021/03/21 07:55:06;;;;;;;28.00;16.23;;;;;;;4.19;43.62;99951.88;1734147;81;21228;-67
2021/03/21 07:57:48;;;;;;;29.90;16.52;;;;;;;3.49;44.19;99945.33;1704154;82;21201;-68
2021/03/21 08:00:17;;;;;;;30.77;16.27;;;;;;;2.80;45.76;99937.34;1682943;83;21218;-69
2021/03/21 08:02:49;;;;;;;25.52;14.38;;;;;;;2.64;47.38;99925.76;1677708;84;21393;-70
2021/03/21 08:05:20;;;;;;;28.27;15.55;;;;;;;2.70;48.65;99928.31;1692733;83;21145;-71
2021/03/21 08:07:52;;;;;;;30.72;14.68;;;;;;;3.22;48.36;99913.09;1670993;83;21629;-70
2021/03/21 08:10:30;;;;;;;26.45;15.20;;;;;;;4.17;45.97;99902.36;1691748;83;22177;-70
2021/03/21 08:13:02;;;;;;;31.12;16.27;;;;;;;4.95;44.11;99897.63;1664815;81;21051;-67
2021/03/21 08:15:35;;;;;;;29.67;16.35;;;;;;;5.11;41.75;99897.33;1731363;81;21304;-69
2021/03/21 08:18:06;;;;;;;29.37;13.62;;;;;;;5.16;41.51;99896.38;1738985;81;23941;-67
2021/03/21 08:20:41;;;;;;;29.48;15.78;;;;;;;5.00;42.27;99894.94;1758429;81;21207;-69
2021/03/21 08:23:26;;;;;;;43.17;11.57;;;;;;;5.08;41.61;99883.90;1735847;81;21187;-69
2021/03/21 08:26:01;;;;;;;31.73;16.12;;;;;;;5.20;41.19;99883.69;1738712;81;21184;-69
2021/03/21 08:28:37;;;;;;;27.85;16.95;;;;;;;5.78;42.32;99861.20;1745887;78;21441;-69
2021/03/21 08:31:11;;;;;;;27.58;15.63;;;;;;;6.09;42.88;99870.54;1794921;78;22118;-69
2021/03/21 08:33:43;;;;;;;24.72;14.80;;;;;;;6.25;42.60;99869.28;1815673;77;21134;-69
2021/03/21 08:36:19;;;;;;;27.52;14.18;;;;;;;6.26;39.58;99867.55;1779722;80;21214;-70
2021/03/21 08:39:08;;;;;;;25.72;15.65;;;;;;;6.18;38.70;99855.95;1774371;80;21180;-68
2021/03/21 08:41:53;;;;;;;30.90;16.25;;;;;;;6.20;38.75;99853.30;1772566;80;22076;-68
2021/03/21 08:44:33;;;;;;;28.90;16.27;;;;;;;6.02;38.82;99854.58;1741258;79;21190;-68
2021/03/21 08:47:03;;;;;;;25.97;15.15;;;;;;;5.96;38.82;99846.45;1765561;80;21147;-68
2021/03/21 08:49:39;;;;;;;23.83;14.85;;;;;;;6.02;40.46;99842.37;1765889;80;21663;-69
2021/03/21 08:52:12;;;;;;;25.65;14.60;;;;;;;6.02;42.11;99838.44;1726806;80;21170;-68
2021/03/21 08:54:41;;;;;;;24.05;12.80;;;;;;;6.40;38.91;99839.30;1760587;80;21355;-70
2021/03/21 08:57:34;;;;;;;26.12;15.58;;;;;;;6.70;39.54;99843.36;1783782;78;21107;-69
2021/03/21 09:00:29;;;;;;;34.30;16.50;;;;;;;6.89;37.58;99841.97;1764680;76;21139;-69
2021/03/21 09:02:57;;;;;;;27.80;15.83;;;;;;;6.78;35.91;99832.22;1774619;79;21571;-69
2021/03/21 09:05:25;;;;;;;30.10;16.60;;;;;;;6.78;36.85;99828.75;1767420;79;21202;-70
2021/03/21 09:08:04;;;;;;;27.37;15.40;;;;;;;6.78;37.12;99828.30;1782347;79;22261;-69
2021/03/21 09:10:38;;;;;;;27.37;15.23;;;;;;;6.83;38.19;99815.98;1718351;82;21217;-68
2021/03/21 09:13:18;;;;;;;24.18;14.63;;;;;;;6.89;39.34;99813.17;1738458;78;21177;-69
2021/03/21 09:16:04;;;;;;;27.30;16.12;;;;;;;6.88;39.05;99816.70;1690721;82;21200;-67
2021/03/21 09:18:39;;;;;;;30.65;16.20;;;;;;;6.74;37.14;99801.83;1713994;81;21688;-67
2021/03/21 09:21:27;;;;;;;27.67;15.88;;;;;;;6.96;36.58;99799.92;1708259;81;21214;-69
2021/03/21 09:24:08;;;;;;;22.25;13.72;;;;;;;6.66;36.13;99801.16;1695557;83;21182;-68
2021/03/21 09:26:44;;;;;;;27.98;15.05;;;;;;;6.55;36.00;99794.03;1718851;82;21213;-67
2021/03/21 09:29:22;;;;;;;27.73;13.22;;;;;;;6.77;38.33;99796.95;1737767;77;21151;-67
2021/03/21 09:31:55;;;;;;;32.60;12.13;;;;;;;6.67;36.09;99792.39;1761070;80;21187;-70
2021/03/21 09:34:53;;;;;;;28.10;14.28;;;;;;;6.36;35.92;99793.19;1740328;81;22319;-68
2021/03/21 09:37:24;;;;;;;24.25;12.35;;;;;;;6.35;37.11;99782.33;1731671;81;21187;-68
2021/03/21 09:40:03;;;;;;;23.10;13.62;;;;;;;6.43;35.21;99782.98;1741887;81;21161;-68
2021/03/21 09:42:31;;;;;;;25.08;14.68;;;;;;;6.66;34.99;99782.84;1742656;81;21219;-68
2021/03/21 09:44:59;;;;;;;26.00;14.15;;;;;;;6.73;35.69;99771.30;1750438;77;21213;-69
2021/03/21 09:47:41;;;;;;;24.07;14.53;;;;;;;7.06;35.25;99764.29;1759932;79;21461;-69
2021/03/21 09:50:39;;;;;;;22.17;13.22;;;;;;;7.82;34.41;99765.95;1771917;79;21239;-68
2021/03/21 09:53:19;;;;;;;22.07;13.40;;;;;;;8.01;34.84;99759.23;1640111;86;21294;-69
2021/03/21 09:55:55;;;;;;;20.35;13.30;;;;;;;8.07;33.14;99745.89;1728225;79;27149;-68
2021/03/21 09:58:42;;;;;;;22.80;13.13;;;;;;;8.44;33.03;99746.00;1732431;80;21261;-67
2021/03/21 10:01:37;;;;;;;24.10;12.70;;;;;;;8.79;31.29;99736.05;1694322;83;21392;-69
2021/03/21 10:04:27;;;;;;;24.85;13.40;;;;;;;9.12;31.44;99734.41;1708722;82;21177;-69
2021/03/21 10:07:00;;;;;;;26.20;13.95;;;;;;;9.15;31.50;99715.89;1709734;83;21185;-69
2021/03/21 10:09:29;;;;;;;20.75;12.35;;;;;;;8.13;36.29;99719.47;1731187;82;21420;-71
2021/03/21 10:12:05;;;;;;;21.07;12.65;;;;;;;8.26;32.51;99713.80;1737682;82;21170;-70
2021/03/21 10:14:38;;;;;;;20.37;12.23;;;;;;;8.42;31.42;99722.92;1721969;81;21433;-67
2021/03/21 10:17:21;;;;;;;19.48;11.28;;;;;;;8.83;30.64;99710.06;1707276;83;21224;-67
2021/03/21 10:19:55;;;;;;;20.82;11.70;;;;;;;8.76;29.40;99716.45;1707033;82;41103;-68
2021/03/21 10:22:34;;;;;;;19.73;11.75;;;;;;;8.65;29.93;99706.36;1716330;83;21655;-68
2021/03/21 10:25:13;;;;;;;17.82;10.08;;;;;;;8.77;32.78;99688.84;1718070;83;21230;-69
2021/03/21 10:27:49;;;;;;;19.85;11.22;;;;;;;8.64;33.27;99701.16;1694385;83;21332;-69
2021/03/21 10:30:25;;;;;;;20.77;10.82;;;;;;;8.70;32.84;99693.07;1719463;80;21189;-69
2021/03/21 10:33:04;;;;;;;20.97;11.78;;;;;;;9.36;32.65;99703.27;1690085;82;21657;-69
2021/03/21 10:35:38;;;;;;;24.72;11.93;;;;;;;9.62;28.98;99698.76;1693562;82;21216;-70
2021/03/21 10:38:10;;;;;;;19.15;10.78;;;;;;;9.48;28.25;99689.22;1700692;82;21155;-72
2021/03/21 10:40:45;;;;;;;;;;;;;;;8.95;29.01;99695.62;1715774;82;21354;-73
2021/03/21 10:43:37;;;;;;;20.97;11.18;;;;;;;8.10;29.21;99688.11;1722694;82;20560;-71
2021/03/21 10:46:06;;;;;;;20.48;11.70;;;;;;;7.48;30.28;99673.53;1747888;81;21625;-68
2021/03/21 10:48:40;;;;;;;19.87;11.03;;;;;;;7.64;32.10;99692.25;1730229;81;21174;-68
2021/03/21 10:51:09;;;;;;;18.65;10.63;;;;;;;7.99;32.41;99670.57;1716757;82;21217;-68
2021/03/21 10:53:48;;;;;;;18.90;10.03;;;;;;;8.05;31.02;99676.05;1674341;84;21238;-67
2021/03/21 10:56:20;;;;;;;20.95;11.35;;;;;;;7.45;31.45;99685.86;1686672;83;21793;-69
2021/03/21 10:59:22;;;;;;;19.42;9.95;;;;;;;7.25;31.39;99672.94;1704494;78;21531;-74
2021/03/21 11:01:52;;;;;;;28.17;10.72;;;;;;;7.22;30.76;99671.70;1719553;82;21211;-75
2021/03/21 11:04:33;;;;;;;22.58;9.43;;;;;;;6.61;31.24;99660.44;1693610;82;21166;-75
2021/03/21 11:07:18;;;;;;;19.90;10.82;;;;;;;6.35;34.08;99669.88;1738105;80;21393;-73
2021/03/21 11:09:53;;;;;;;15.70;9.23;;;;;;;6.45;32.99;99668.70;1744738;81;21159;-74
2021/03/21 11:12:37;;;;;;;35.73;9.10;;;;;;;6.64;31.76;99642.87;1752309;81;21152;-73
2021/03/21 11:15:34;;;;;;;18.37;9.95;;;;;;;6.09;32.38;99658.32;1744044;80;21219;-68
2021/03/21 11:18:24;;;;;;;18.17;10.05;;;;;;;5.50;33.56;99647.61;1731380;81;21183;-68
2021/03/21 11:21:04;;;;;;;19.00;9.30;;;;;;;5.56;33.14;99644.83;1703544;83;21689;-69
2021/03/21 11:23:45;;;;;;;16.77;10.30;;;;;;;5.58;34.94;99640.42;1712007;81;21687;-68
2021/03/21 11:26:31;;;;;;;16.60;8.18;;;;;;;5.77;37.63;99617.30;1715649;82;21202;-67
2021/03/21 11:29:13;;;;;;;15.32;9.30;;;;;;;6.21;35.80;99606.18;1691919;81;21432;-70
2021/03/21 11:34:35;;;;;;;24.67;11.17;;;;;;;5.75;35.26;99599.95;1826681;77;27196;-71
2021/03/21 11:37:21;;;;;;;21.80;11.48;;;;;;;5.78;35.35;99609.05;1796464;79;21232;-71
2021/03/21 11:39:58;;;;;;;15.78;9.25;;;;;;;5.71;35.44;99611.41;1778942;78;21367;-70
2021/03/21 11:42:41;;;;;;;17.25;10.03;;;;;;;5.89;35.83;99595.25;1731048;82;21606;-70
2021/03/21 11:45:25;;;;;;;17.70;9.43;;;;;;;5.87;36.38;99604.88;1750685;80;21238;-68
2021/03/21 11:48:00;;;;;;;19.65;10.45;;;;;;;5.74;36.15;99587.80;1757482;80;21187;-68
2021/03/21 11:50:32;;;;;;;15.53;9.95;;;;;;;5.78;35.56;99579.84;1703221;83;21235;-68
2021/03/21 11:53:00;;;;;;;20.15;11.22;;;;;;;5.95;34.78;99566.80;1732118;81;22310;-68
2021/03/21 11:55:38;;;;;;;18.65;10.60;;;;;;;6.14;35.23;99565.84;1742969;81;21190;-69
2021/03/21 11:58:47;;;;;;;17.87;9.40;;;;;;;6.25;35.73;99575.55;1739069;81;21194;-68
2021/03/21 12:01:22;;;;;;;17.90;10.15;;;;;;;5.73;34.79;99579.53;1763294;78;21204;-72
2021/03/21 12:03:56;;;;;;;17.67;9.70;;;;;;;5.11;36.72;99564.11;1784657;78;21219;-72
2021/03/21 12:06:51;;;;;;;20.45;10.20;;;;;;;4.81;36.49;99565.23;1787890;78;21366;-72
2021/03/21 12:09:34;;;;;;;20.02;11.15;;;;;;;4.87;37.32;99554.23;1781717;78;21177;-73
2021/03/21 12:12:06;;;;;;;21.30;9.75;;;;;;;5.18;36.93;99548.70;1799260;78;21156;-71
2021/03/21 12:14:46;;;;;;;16.55;9.93;;;;;;;5.60;35.98;99543.30;1744106;78;21235;-69
2021/03/21 12:17:26;;;;;;;20.57;11.03;;;;;;;5.71;35.65;99538.25;1643271;85;21658;-70
2021/03/21 12:19:57;;;;;;;20.75;11.43;;;;;;;5.33;36.50;99541.39;1657418;86;22287;-70
2021/03/21 12:22:38;;;;;;;22.22;10.53;;;;;;;5.26;36.18;99544.14;1661230;85;21661;-69
2021/03/21 12:25:28;;;;;;;25.70;11.35;;;;;;;5.39;36.92;99552.54;1643458;85;21660;-70
2021/03/21 12:28:07;;;;;;;21.80;11.53;;;;;;;5.64;35.88;99532.33;1627239;87;21213;-70
2021/03/21 12:30:45;;;;;;;19.23;9.70;;;;;;;5.72;35.14;99529.50;1667337;82;21229;-74
2021/03/21 12:33:27;;;;;;;19.15;10.55;;;;;;;5.48;34.88;99535.78;1680260;83;21226;-74
2021/03/21 12:36:11;;;;;;;21.12;9.30;;;;;;;5.16;37.18;99538.75;1702965;83;21630;-72
2021/03/21 12:38:44;;;;;;;16.70;10.05;;;;;;;5.06;38.76;99533.32;1670504;83;21269;-73
2021/03/21 12:41:37;;;;;;;20.27;10.70;;;;;;;5.09;44.81;99528.50;1683821;84;21649;-73
2021/03/21 12:44:31;;;;;;;20.92;11.00;;;;;;;5.31;36.88;99522.29;1692937;82;21056;-69